sensor_id;sensor_type;location;lat;lon;timestamp;pressure;altitude;pressure_sealevel;temperature
65600;BMP280;52272;-29.642;-50.764;2022-11-15T00:01:01;100302.72;;;21.58
65600;BMP280;52272;-29.642;-50.764;2022-11-15T00:03:51;100306.97;;;21.41
65600;BMP280;52272;-29.642;-50.764;2022-11-15T00:06:40;100327.19;;;21.71
65600;BMP280;52272;-29.642;-50.764;2022-11-15T00:09:29;100334.13;;;21.35
65600;BMP280;52272;-29.642;-50.764;2022-11-15T00:12:18;100338.13;;;21.47
65600;BMP280;52272;-29.642;-50.764;2022-11-15T00:15:07;100342.25;;;21.35
65600;BMP280;52272;-29.642;-50.764;2022-11-15T00:17:56;100344.47;;;21.18
65600;BMP280;52272;-29.642;-50.764;2022-11-15T00:20:45;100347.28;;;21.13
65600;BMP280;52272;-29.642;-50.764;2022-11-15T00:23:33;100349.50;;;21.09
65600;BMP280;52272;-29.642;-50.764;2022-11-15T00:26:22;100352.66;;;21.31
65600;BMP280;52272;-29.642;-50.764;2022-11-15T00:29:10;100365.13;;;21.21
65600;BMP280;52272;-29.642;-50.764;2022-11-15T00:31:59;100374.47;;;21.20
65600;BMP280;52272;-29.642;-50.764;2022-11-15T00:34:48;100382.81;;;21.04
65600;BMP280;52272;-29.642;-50.764;2022-11-15T00:37:36;100359.66;;;20.84
65600;BMP280;52272;-29.642;-50.764;2022-11-15T00:40:25;100385.31;;;21.20
65600;BMP280;52272;-29.642;-50.764;2022-11-15T00:43:13;100390.66;;;21.07
65600;BMP280;52272;-29.642;-50.764;2022-11-15T00:46:01;100369.19;;;20.91
65600;BMP280;52272;-29.642;-50.764;2022-11-15T00:48:50;100392.56;;;21.12
65600;BMP280;52272;-29.642;-50.764;2022-11-15T00:51:39;100396.88;;;21.02
65600;BMP280;52272;-29.642;-50.764;2022-11-15T00:54:27;100400.63;;;21.18
65600;BMP280;52272;-29.642;-50.764;2022-11-15T00:57:16;100392.47;;;20.99
65600;BMP280;52272;-29.642;-50.764;2022-11-15T01:00:05;100379.53;;;20.50
65600;BMP280;52272;-29.642;-50.764;2022-11-15T01:02:55;100375.03;;;20.76
65600;BMP280;52272;-29.642;-50.764;2022-11-15T01:05:43;100379.84;;;20.65
65600;BMP280;52272;-29.642;-50.764;2022-11-15T01:08:32;100378.53;;;20.71
65600;BMP280;52272;-29.642;-50.764;2022-11-15T01:11:22;100390.38;;;20.68
65600;BMP280;52272;-29.642;-50.764;2022-11-15T01:14:11;100381.09;;;20.58
65600;BMP280;52272;-29.642;-50.764;2022-11-15T01:16:59;100378.81;;;20.68
65600;BMP280;52272;-29.642;-50.764;2022-11-15T01:19:48;100386.91;;;20.49
65600;BMP280;52272;-29.642;-50.764;2022-11-15T01:22:36;100390.09;;;20.72
65600;BMP280;52272;-29.642;-50.764;2022-11-15T01:25:25;100378.03;;;20.49
65600;BMP280;52272;-29.642;-50.764;2022-11-15T01:28:13;100376.09;;;20.68
65600;BMP280;52272;-29.642;-50.764;2022-11-15T01:31:05;100383.50;;;20.67
65600;BMP280;52272;-29.642;-50.764;2022-11-15T01:33:53;100382.47;;;20.94
65600;BMP280;52272;-29.642;-50.764;2022-11-15T01:36:42;100375.47;;;20.80
65600;BMP280;52272;-29.642;-50.764;2022-11-15T01:39:30;100383.69;;;20.93
65600;BMP280;52272;-29.642;-50.764;2022-11-15T01:42:19;100375.84;;;20.90
65600;BMP280;52272;-29.642;-50.764;2022-11-15T01:45:14;100385.28;;;20.83
65600;BMP280;52272;-29.642;-50.764;2022-11-15T01:48:03;100374.84;;;21.11
65600;BMP280;52272;-29.642;-50.764;2022-11-15T01:50:51;100387.97;;;21.07
65600;BMP280;52272;-29.642;-50.764;2022-11-15T01:53:42;100385.16;;;20.94
65600;BMP280;52272;-29.642;-50.764;2022-11-15T01:56:35;100376.78;;;20.74
65600;BMP280;52272;-29.642;-50.764;2022-11-15T01:59:28;100375.06;;;20.95
65600;BMP280;52272;-29.642;-50.764;2022-11-15T02:02:16;100371.63;;;20.94
65600;BMP280;52272;-29.642;-50.764;2022-11-15T02:05:05;100369.63;;;20.95
65600;BMP280;52272;-29.642;-50.764;2022-11-15T02:07:54;100362.56;;;21.10
65600;BMP280;52272;-29.642;-50.764;2022-11-15T02:10:43;100352.22;;;21.27
65600;BMP280;52272;-29.642;-50.764;2022-11-15T02:13:31;100357.78;;;21.16
65600;BMP280;52272;-29.642;-50.764;2022-11-15T02:28:45;100321.75;;;20.84
65600;BMP280;52272;-29.642;-50.764;2022-11-15T02:34:35;100356.03;;;21.00
65600;BMP280;52272;-29.642;-50.764;2022-11-15T02:40:53;100351.06;;;21.04
65600;BMP280;52272;-29.642;-50.764;2022-11-15T02:43:59;100347.97;;;20.76
65600;BMP280;52272;-29.642;-50.764;2022-11-15T02:46:59;100346.13;;;20.66
65600;BMP280;52272;-29.642;-50.764;2022-11-15T02:50:07;100330.13;;;20.86
65600;BMP280;52272;-29.642;-50.764;2022-11-15T02:52:56;100333.97;;;20.72
65600;BMP280;52272;-29.642;-50.764;2022-11-15T02:55:47;100331.41;;;20.61
65600;BMP280;52272;-29.642;-50.764;2022-11-15T02:59:07;100328.38;;;20.89
65600;BMP280;52272;-29.642;-50.764;2022-11-15T03:11:31;100319.31;;;20.86
65600;BMP280;52272;-29.642;-50.764;2022-11-15T03:14:31;100322.13;;;20.75
65600;BMP280;52272;-29.642;-50.764;2022-11-15T03:17:27;100311.47;;;21.01
65600;BMP280;52272;-29.642;-50.764;2022-11-15T03:20:17;100313.44;;;21.01
65600;BMP280;52272;-29.642;-50.764;2022-11-15T03:23:10;100307.59;;;20.78
65600;BMP280;52272;-29.642;-50.764;2022-11-15T03:25:59;100298.84;;;20.48
65600;BMP280;52272;-29.642;-50.764;2022-11-15T03:28:55;100299.22;;;20.58
65600;BMP280;52272;-29.642;-50.764;2022-11-15T03:31:51;100288.84;;;20.62
65600;BMP280;52272;-29.642;-50.764;2022-11-15T03:35:20;100297.16;;;20.64
65600;BMP280;52272;-29.642;-50.764;2022-11-15T03:40:59;100296.56;;;20.52
65600;BMP280;52272;-29.642;-50.764;2022-11-15T03:44:02;100279.34;;;20.74
65600;BMP280;52272;-29.642;-50.764;2022-11-15T03:47:24;100304.94;;;20.73
65600;BMP280;52272;-29.642;-50.764;2022-11-15T03:50:19;100286.34;;;20.45
65600;BMP280;52272;-29.642;-50.764;2022-11-15T03:53:09;100289.47;;;20.68
65600;BMP280;52272;-29.642;-50.764;2022-11-15T03:55:57;100285.25;;;21.09
65600;BMP280;52272;-29.642;-50.764;2022-11-15T03:58:46;100286.47;;;21.27
65600;BMP280;52272;-29.642;-50.764;2022-11-15T04:01:35;100289.69;;;21.25
65600;BMP280;52272;-29.642;-50.764;2022-11-15T04:04:24;100283.19;;;21.15
65600;BMP280;52272;-29.642;-50.764;2022-11-15T04:07:12;100282.75;;;21.11
65600;BMP280;52272;-29.642;-50.764;2022-11-15T04:10:01;100275.25;;;21.04
65600;BMP280;52272;-29.642;-50.764;2022-11-15T04:12:50;100283.47;;;21.12
65600;BMP280;52272;-29.642;-50.764;2022-11-15T04:15:39;100276.91;;;21.07
65600;BMP280;52272;-29.642;-50.764;2022-11-15T04:18:30;100283.13;;;21.21
65600;BMP280;52272;-29.642;-50.764;2022-11-15T04:21:19;100276.31;;;21.14
65600;BMP280;52272;-29.642;-50.764;2022-11-15T04:24:26;100273.41;;;21.12
65600;BMP280;52272;-29.642;-50.764;2022-11-15T04:27:15;100261.63;;;21.10
65600;BMP280;52272;-29.642;-50.764;2022-11-15T04:30:04;100278.84;;;21.25
65600;BMP280;52272;-29.642;-50.764;2022-11-15T04:32:53;100265.75;;;20.98
65600;BMP280;52272;-29.642;-50.764;2022-11-15T04:35:42;100269.94;;;21.30
65600;BMP280;52272;-29.642;-50.764;2022-11-15T04:38:31;100270.78;;;21.38
65600;BMP280;52272;-29.642;-50.764;2022-11-15T04:41:19;100267.59;;;21.03
65600;BMP280;52272;-29.642;-50.764;2022-11-15T04:44:08;100268.22;;;20.96
65600;BMP280;52272;-29.642;-50.764;2022-11-15T04:46:57;100278.22;;;21.19
65600;BMP280;52272;-29.642;-50.764;2022-11-15T04:49:46;100294.34;;;21.43
65600;BMP280;52272;-29.642;-50.764;2022-11-15T04:52:34;100283.81;;;21.40
65600;BMP280;52272;-29.642;-50.764;2022-11-15T04:55:23;100288.19;;;21.43
65600;BMP280;52272;-29.642;-50.764;2022-11-15T04:58:12;100298.16;;;21.35
65600;BMP280;52272;-29.642;-50.764;2022-11-15T05:01:12;100266.28;;;21.28
65600;BMP280;52272;-29.642;-50.764;2022-11-15T05:04:04;100291.75;;;21.19
65600;BMP280;52272;-29.642;-50.764;2022-11-15T05:07:08;100299.06;;;21.24
65600;BMP280;52272;-29.642;-50.764;2022-11-15T05:09:56;100301.00;;;21.29
65600;BMP280;52272;-29.642;-50.764;2022-11-15T05:12:46;100281.53;;;21.12
65600;BMP280;52272;-29.642;-50.764;2022-11-15T05:15:34;100300.09;;;20.84
65600;BMP280;52272;-29.642;-50.764;2022-11-15T05:18:23;100301.34;;;21.20
65600;BMP280;52272;-29.642;-50.764;2022-11-15T05:21:14;100301.69;;;21.48
65600;BMP280;52272;-29.642;-50.764;2022-11-15T05:24:04;100296.13;;;21.41
65600;BMP280;52272;-29.642;-50.764;2022-11-15T05:26:52;100293.38;;;21.28
65600;BMP280;52272;-29.642;-50.764;2022-11-15T05:29:43;100300.38;;;21.36
65600;BMP280;52272;-29.642;-50.764;2022-11-15T05:32:31;100301.84;;;21.37
65600;BMP280;52272;-29.642;-50.764;2022-11-15T05:35:37;100288.78;;;21.04
65600;BMP280;52272;-29.642;-50.764;2022-11-15T05:38:27;100293.06;;;21.31
65600;BMP280;52272;-29.642;-50.764;2022-11-15T05:41:19;100287.22;;;21.09
65600;BMP280;52272;-29.642;-50.764;2022-11-15T05:44:11;100302.91;;;21.47
65600;BMP280;52272;-29.642;-50.764;2022-11-15T05:47:03;100297.28;;;21.45
65600;BMP280;52272;-29.642;-50.764;2022-11-15T05:49:53;100286.22;;;21.43
65600;BMP280;52272;-29.642;-50.764;2022-11-15T05:52:42;100304.31;;;21.35
65600;BMP280;52272;-29.642;-50.764;2022-11-15T05:55:31;100284.50;;;21.27
65600;BMP280;52272;-29.642;-50.764;2022-11-15T05:58:23;100297.63;;;21.05
65600;BMP280;52272;-29.642;-50.764;2022-11-15T06:01:11;100286.94;;;21.12
65600;BMP280;52272;-29.642;-50.764;2022-11-15T06:04:00;100296.78;;;20.54
65600;BMP280;52272;-29.642;-50.764;2022-11-15T06:06:48;100297.19;;;21.01
65600;BMP280;52272;-29.642;-50.764;2022-11-15T06:09:37;100290.84;;;20.98
65600;BMP280;52272;-29.642;-50.764;2022-11-15T06:12:26;100308.44;;;21.23
65600;BMP280;52272;-29.642;-50.764;2022-11-15T06:15:14;100303.47;;;21.27
65600;BMP280;52272;-29.642;-50.764;2022-11-15T06:18:06;100303.06;;;20.86
65600;BMP280;52272;-29.642;-50.764;2022-11-15T06:20:58;100308.13;;;21.45
65600;BMP280;52272;-29.642;-50.764;2022-11-15T06:23:47;100312.44;;;21.35
65600;BMP280;52272;-29.642;-50.764;2022-11-15T06:26:36;100317.59;;;21.39
65600;BMP280;52272;-29.642;-50.764;2022-11-15T06:29:24;100316.50;;;21.29
65600;BMP280;52272;-29.642;-50.764;2022-11-15T06:32:13;100308.16;;;21.08
65600;BMP280;52272;-29.642;-50.764;2022-11-15T06:35:01;100312.56;;;21.11
65600;BMP280;52272;-29.642;-50.764;2022-11-15T06:37:50;100317.53;;;21.07
65600;BMP280;52272;-29.642;-50.764;2022-11-15T06:40:39;100319.66;;;21.14
65600;BMP280;52272;-29.642;-50.764;2022-11-15T06:43:27;100313.13;;;21.41
65600;BMP280;52272;-29.642;-50.764;2022-11-15T06:46:16;100312.78;;;21.13
65600;BMP280;52272;-29.642;-50.764;2022-11-15T06:49:05;100323.38;;;21.11
65600;BMP280;52272;-29.642;-50.764;2022-11-15T06:51:55;100323.66;;;21.26
65600;BMP280;52272;-29.642;-50.764;2022-11-15T06:54:44;100320.97;;;21.26
65600;BMP280;52272;-29.642;-50.764;2022-11-15T06:57:33;100317.69;;;21.33
65600;BMP280;52272;-29.642;-50.764;2022-11-15T07:00:25;100325.72;;;21.20
65600;BMP280;52272;-29.642;-50.764;2022-11-15T07:03:13;100330.50;;;21.14
65600;BMP280;52272;-29.642;-50.764;2022-11-15T07:06:03;100337.69;;;21.43
65600;BMP280;52272;-29.642;-50.764;2022-11-15T07:08:53;100339.78;;;21.19
65600;BMP280;52272;-29.642;-50.764;2022-11-15T07:11:42;100333.78;;;21.44
65600;BMP280;52272;-29.642;-50.764;2022-11-15T07:14:31;100330.88;;;21.05
65600;BMP280;52272;-29.642;-50.764;2022-11-15T07:17:20;100299.22;;;21.13
65600;BMP280;52272;-29.642;-50.764;2022-11-15T07:20:09;100334.97;;;21.30
65600;BMP280;52272;-29.642;-50.764;2022-11-15T07:23:02;100338.69;;;21.27
65600;BMP280;52272;-29.642;-50.764;2022-11-15T07:25:51;100345.00;;;20.98
65600;BMP280;52272;-29.642;-50.764;2022-11-15T07:28:40;100350.31;;;21.04
65600;BMP280;52272;-29.642;-50.764;2022-11-15T07:31:28;100347.09;;;20.87
65600;BMP280;52272;-29.642;-50.764;2022-11-15T07:34:17;100342.84;;;21.28
65600;BMP280;52272;-29.642;-50.764;2022-11-15T07:37:06;100350.19;;;21.33
65600;BMP280;52272;-29.642;-50.764;2022-11-15T07:39:55;100352.44;;;21.79
65600;BMP280;52272;-29.642;-50.764;2022-11-15T07:42:44;100330.44;;;21.51
65600;BMP280;52272;-29.642;-50.764;2022-11-15T07:45:43;100367.03;;;21.76
65600;BMP280;52272;-29.642;-50.764;2022-11-15T07:48:32;100344.06;;;21.64
65600;BMP280;52272;-29.642;-50.764;2022-11-15T07:51:30;100363.72;;;21.83
65600;BMP280;52272;-29.642;-50.764;2022-11-15T07:54:18;100370.31;;;22.00
65600;BMP280;52272;-29.642;-50.764;2022-11-15T07:57:09;100364.56;;;21.91
65600;BMP280;52272;-29.642;-50.764;2022-11-15T07:59:58;100372.72;;;22.04
65600;BMP280;52272;-29.642;-50.764;2022-11-15T08:02:46;100376.25;;;21.99
65600;BMP280;52272;-29.642;-50.764;2022-11-15T08:05:36;100373.75;;;22.01
65600;BMP280;52272;-29.642;-50.764;2022-11-15T08:08:25;100376.75;;;21.97
65600;BMP280;52272;-29.642;-50.764;2022-11-15T08:11:13;100350.53;;;21.74
65600;BMP280;52272;-29.642;-50.764;2022-11-15T08:14:02;100375.66;;;22.06
65600;BMP280;52272;-29.642;-50.764;2022-11-15T08:16:50;100372.81;;;22.11
65600;BMP280;52272;-29.642;-50.764;2022-11-15T08:19:40;100378.38;;;22.19
65600;BMP280;52272;-29.642;-50.764;2022-11-15T08:22:29;100383.81;;;22.19
65600;BMP280;52272;-29.642;-50.764;2022-11-15T08:25:18;100382.78;;;22.22
65600;BMP280;52272;-29.642;-50.764;2022-11-15T08:28:07;100367.94;;;22.23
65600;BMP280;52272;-29.642;-50.764;2022-11-15T08:31:00;100374.41;;;22.20
65600;BMP280;52272;-29.642;-50.764;2022-11-15T08:33:48;100390.47;;;22.18
65600;BMP280;52272;-29.642;-50.764;2022-11-15T08:36:37;100382.88;;;22.29
65600;BMP280;52272;-29.642;-50.764;2022-11-15T08:39:31;100355.28;;;21.86
65600;BMP280;52272;-29.642;-50.764;2022-11-15T08:42:20;100398.22;;;22.27
65600;BMP280;52272;-29.642;-50.764;2022-11-15T08:45:09;100402.19;;;22.39
65600;BMP280;52272;-29.642;-50.764;2022-11-15T08:48:01;100407.63;;;22.39
65600;BMP280;52272;-29.642;-50.764;2022-11-15T08:50:56;100409.94;;;22.48
65600;BMP280;52272;-29.642;-50.764;2022-11-15T08:53:44;100416.19;;;22.56
65600;BMP280;52272;-29.642;-50.764;2022-11-15T08:56:33;100417.44;;;22.42
65600;BMP280;52272;-29.642;-50.764;2022-11-15T08:59:25;100422.94;;;22.23
65600;BMP280;52272;-29.642;-50.764;2022-11-15T09:02:14;100420.13;;;22.16
65600;BMP280;52272;-29.642;-50.764;2022-11-15T09:05:03;100432.56;;;22.24
65600;BMP280;52272;-29.642;-50.764;2022-11-15T09:07:54;100429.34;;;21.94
65600;BMP280;52272;-29.642;-50.764;2022-11-15T09:10:43;100430.94;;;22.03
65600;BMP280;52272;-29.642;-50.764;2022-11-15T09:13:32;100432.97;;;21.84
65600;BMP280;52272;-29.642;-50.764;2022-11-15T09:16:21;100433.19;;;21.86
65600;BMP280;52272;-29.642;-50.764;2022-11-15T09:19:09;100441.53;;;21.69
65600;BMP280;52272;-29.642;-50.764;2022-11-15T09:21:57;100442.81;;;21.68
65600;BMP280;52272;-29.642;-50.764;2022-11-15T09:24:46;100444.72;;;21.55
65600;BMP280;52272;-29.642;-50.764;2022-11-15T09:27:34;100457.78;;;22.06
65600;BMP280;52272;-29.642;-50.764;2022-11-15T09:30:24;100464.63;;;22.26
65600;BMP280;52272;-29.642;-50.764;2022-11-15T09:33:13;100472.38;;;23.12
65600;BMP280;52272;-29.642;-50.764;2022-11-15T09:36:03;100477.56;;;23.36
65600;BMP280;52272;-29.642;-50.764;2022-11-15T09:38:52;100470.25;;;23.85
65600;BMP280;52272;-29.642;-50.764;2022-11-15T09:44:43;100477.31;;;24.77
65600;BMP280;52272;-29.642;-50.764;2022-11-15T09:51:12;100484.63;;;25.47
65600;BMP280;52272;-29.642;-50.764;2022-11-15T09:53:50;100492.31;;;25.56
65600;BMP280;52272;-29.642;-50.764;2022-11-15T09:56:46;100493.78;;;25.65
65600;BMP280;52272;-29.642;-50.764;2022-11-15T10:04:43;100510.13;;;26.62
65600;BMP280;52272;-29.642;-50.764;2022-11-15T10:12:48;100515.13;;;26.88
65600;BMP280;52272;-29.642;-50.764;2022-11-15T10:15:21;100518.38;;;26.94
65600;BMP280;52272;-29.642;-50.764;2022-11-15T10:20:56;100541.81;;;27.51
65600;BMP280;52272;-29.642;-50.764;2022-11-15T10:23:28;100537.22;;;27.22
65600;BMP280;52272;-29.642;-50.764;2022-11-15T10:25:59;100539.97;;;27.22
65600;BMP280;52272;-29.642;-50.764;2022-11-15T10:28:34;100533.88;;;27.38
65600;BMP280;52272;-29.642;-50.764;2022-11-15T10:31:21;100544.22;;;27.71
65600;BMP280;52272;-29.642;-50.764;2022-11-15T10:34:09;100550.00;;;28.07
65600;BMP280;52272;-29.642;-50.764;2022-11-15T10:36:55;100551.78;;;27.88
65600;BMP280;52272;-29.642;-50.764;2022-11-15T10:39:26;100549.94;;;28.31
65600;BMP280;52272;-29.642;-50.764;2022-11-15T10:41:56;100541.34;;;28.52
65600;BMP280;52272;-29.642;-50.764;2022-11-15T10:44:31;100566.19;;;28.54
65600;BMP280;52272;-29.642;-50.764;2022-11-15T10:47:20;100563.41;;;28.37
65600;BMP280;52272;-29.642;-50.764;2022-11-15T10:52:30;100556.34;;;28.10
65600;BMP280;52272;-29.642;-50.764;2022-11-15T10:55:24;100547.38;;;27.36
65600;BMP280;52272;-29.642;-50.764;2022-11-15T10:58:05;100557.06;;;27.29
65600;BMP280;52272;-29.642;-50.764;2022-11-15T11:00:37;100568.56;;;27.35
65600;BMP280;52272;-29.642;-50.764;2022-11-15T11:03:34;100546.81;;;27.06
65600;BMP280;52272;-29.642;-50.764;2022-11-15T11:06:16;100561.81;;;26.82
65600;BMP280;52272;-29.642;-50.764;2022-11-15T11:08:59;100558.97;;;26.28
65600;BMP280;52272;-29.642;-50.764;2022-11-15T11:11:47;100572.06;;;26.52
65600;BMP280;52272;-29.642;-50.764;2022-11-15T11:14:37;100566.06;;;26.46
65600;BMP280;52272;-29.642;-50.764;2022-11-15T11:20:20;100580.00;;;26.95
65600;BMP280;52272;-29.642;-50.764;2022-11-15T11:25:55;100577.91;;;26.56
65600;BMP280;52272;-29.642;-50.764;2022-11-15T11:28:47;100588.28;;;26.65
65600;BMP280;52272;-29.642;-50.764;2022-11-15T11:31:55;100575.69;;;26.54
65600;BMP280;52272;-29.642;-50.764;2022-11-15T11:37:27;100599.19;;;26.80
65600;BMP280;52272;-29.642;-50.764;2022-11-15T11:42:55;100598.59;;;26.96
65600;BMP280;52272;-29.642;-50.764;2022-11-15T11:45:44;100606.22;;;26.98
65600;BMP280;52272;-29.642;-50.764;2022-11-15T11:48:43;100594.25;;;26.78
65600;BMP280;52272;-29.642;-50.764;2022-11-15T11:51:41;100612.44;;;27.06
65600;BMP280;52272;-29.642;-50.764;2022-11-15T11:54:39;100629.34;;;27.58
65600;BMP280;52272;-29.642;-50.764;2022-11-15T11:57:43;100630.19;;;27.36
65600;BMP280;52272;-29.642;-50.764;2022-11-15T12:00:21;100633.72;;;27.93
65600;BMP280;52272;-29.642;-50.764;2022-11-15T12:06:04;100625.59;;;27.78
65600;BMP280;52272;-29.642;-50.764;2022-11-15T12:08:54;100619.31;;;27.61
65600;BMP280;52272;-29.642;-50.764;2022-11-15T12:11:55;100637.19;;;27.94
65600;BMP280;52272;-29.642;-50.764;2022-11-15T12:17:40;100633.84;;;28.85
65600;BMP280;52272;-29.642;-50.764;2022-11-15T12:20:23;100635.69;;;28.83
65600;BMP280;52272;-29.642;-50.764;2022-11-15T12:22:58;100635.91;;;29.11
65600;BMP280;52272;-29.642;-50.764;2022-11-15T12:28:37;100635.63;;;29.50
65600;BMP280;52272;-29.642;-50.764;2022-11-15T12:31:36;100636.53;;;29.62
65600;BMP280;52272;-29.642;-50.764;2022-11-15T12:35:20;100628.19;;;28.66
65600;BMP280;52272;-29.642;-50.764;2022-11-15T12:37:46;100626.16;;;28.50
65600;BMP280;52272;-29.642;-50.764;2022-11-15T12:45:45;100625.78;;;29.47
65600;BMP280;52272;-29.642;-50.764;2022-11-15T12:50:53;100624.41;;;29.39
65600;BMP280;52272;-29.642;-50.764;2022-11-15T12:59:00;100615.50;;;28.71
65600;BMP280;52272;-29.642;-50.764;2022-11-15T13:07:01;100602.69;;;28.15
65600;BMP280;52272;-29.642;-50.764;2022-11-15T13:15:07;100602.94;;;27.53
65600;BMP280;52272;-29.642;-50.764;2022-11-15T13:17:54;100617.38;;;28.27
65600;BMP280;52272;-29.642;-50.764;2022-11-15T13:20:30;100616.41;;;29.50
65600;BMP280;52272;-29.642;-50.764;2022-11-15T13:23:02;100611.66;;;29.87
65600;BMP280;52272;-29.642;-50.764;2022-11-15T13:28:36;100604.28;;;29.89
65600;BMP280;52272;-29.642;-50.764;2022-11-15T13:31:37;100609.47;;;30.49
65600;BMP280;52272;-29.642;-50.764;2022-11-15T13:34:33;100618.81;;;30.18
65600;BMP280;52272;-29.642;-50.764;2022-11-15T13:39:50;100604.63;;;30.12
65600;BMP280;52272;-29.642;-50.764;2022-11-15T13:42:21;100613.25;;;30.63
65600;BMP280;52272;-29.642;-50.764;2022-11-15T13:45:01;100597.19;;;30.60
65600;BMP280;52272;-29.642;-50.764;2022-11-15T13:47:34;100594.84;;;30.47
65600;BMP280;52272;-29.642;-50.764;2022-11-15T13:50:05;100603.66;;;30.83
65600;BMP280;52272;-29.642;-50.764;2022-11-15T13:52:41;100598.91;;;30.46
65600;BMP280;52272;-29.642;-50.764;2022-11-15T13:55:17;100610.91;;;30.41
65600;BMP280;52272;-29.642;-50.764;2022-11-15T14:03:18;100602.41;;;30.75
65600;BMP280;52272;-29.642;-50.764;2022-11-15T14:06:06;100593.69;;;30.88
65600;BMP280;52272;-29.642;-50.764;2022-11-15T14:08:38;100598.75;;;31.00
65600;BMP280;52272;-29.642;-50.764;2022-11-15T14:11:16;100606.13;;;30.70
65600;BMP280;52272;-29.642;-50.764;2022-11-15T14:16:44;100596.00;;;30.44
65600;BMP280;52272;-29.642;-50.764;2022-11-15T14:22:19;100601.25;;;31.36
65600;BMP280;52272;-29.642;-50.764;2022-11-15T14:25:30;100594.28;;;30.39
65600;BMP280;52272;-29.642;-50.764;2022-11-15T14:30:57;100594.47;;;31.18
65600;BMP280;52272;-29.642;-50.764;2022-11-15T14:33:31;100596.97;;;31.05
65600;BMP280;52272;-29.642;-50.764;2022-11-15T14:36:05;100605.72;;;30.73
65600;BMP280;52272;-29.642;-50.764;2022-11-15T14:38:36;100596.25;;;31.04
65600;BMP280;52272;-29.642;-50.764;2022-11-15T14:41:21;100598.88;;;31.02
65600;BMP280;52272;-29.642;-50.764;2022-11-15T14:43:54;100596.00;;;30.44
65600;BMP280;52272;-29.642;-50.764;2022-11-15T14:46:25;100596.09;;;30.08
65600;BMP280;52272;-29.642;-50.764;2022-11-15T14:48:55;100604.84;;;30.71
65600;BMP280;52272;-29.642;-50.764;2022-11-15T14:51:25;100595.13;;;30.89
65600;BMP280;52272;-29.642;-50.764;2022-11-15T14:53:55;100572.97;;;30.87
65600;BMP280;52272;-29.642;-50.764;2022-11-15T14:56:26;100590.91;;;30.97
65600;BMP280;52272;-29.642;-50.764;2022-11-15T14:58:59;100598.00;;;31.09
65600;BMP280;52272;-29.642;-50.764;2022-11-15T15:01:29;100585.75;;;31.31
65600;BMP280;52272;-29.642;-50.764;2022-11-15T15:03:59;100601.81;;;31.44
65600;BMP280;52272;-29.642;-50.764;2022-11-15T15:06:30;100590.47;;;31.50
65600;BMP280;52272;-29.642;-50.764;2022-11-15T15:09:01;100603.22;;;31.55
65600;BMP280;52272;-29.642;-50.764;2022-11-15T15:11:32;100607.91;;;31.73
65600;BMP280;52272;-29.642;-50.764;2022-11-15T15:14:02;100596.13;;;32.03
65600;BMP280;52272;-29.642;-50.764;2022-11-15T15:16:33;100600.56;;;31.26
65600;BMP280;52272;-29.642;-50.764;2022-11-15T15:19:03;100597.84;;;31.87
65600;BMP280;52272;-29.642;-50.764;2022-11-15T15:21:34;100595.06;;;31.87
65600;BMP280;52272;-29.642;-50.764;2022-11-15T15:24:05;100589.16;;;31.60
65600;BMP280;52272;-29.642;-50.764;2022-11-15T15:26:35;100597.69;;;31.85
65600;BMP280;52272;-29.642;-50.764;2022-11-15T15:29:07;100570.72;;;31.23
65600;BMP280;52272;-29.642;-50.764;2022-11-15T15:31:38;100580.00;;;31.27
65600;BMP280;52272;-29.642;-50.764;2022-11-15T15:34:08;100571.41;;;31.33
65600;BMP280;52272;-29.642;-50.764;2022-11-15T15:36:45;100572.84;;;30.85
65600;BMP280;52272;-29.642;-50.764;2022-11-15T15:39:15;100577.88;;;30.97
65600;BMP280;52272;-29.642;-50.764;2022-11-15T15:41:46;100585.88;;;31.73
65600;BMP280;52272;-29.642;-50.764;2022-11-15T15:44:22;100578.72;;;31.79
65600;BMP280;52272;-29.642;-50.764;2022-11-15T15:46:52;100584.72;;;32.18
65600;BMP280;52272;-29.642;-50.764;2022-11-15T15:49:22;100582.47;;;32.47
65600;BMP280;52272;-29.642;-50.764;2022-11-15T15:51:52;100581.69;;;33.11
65600;BMP280;52272;-29.642;-50.764;2022-11-15T15:54:22;100585.81;;;32.77
65600;BMP280;52272;-29.642;-50.764;2022-11-15T15:56:53;100584.25;;;32.74
65600;BMP280;52272;-29.642;-50.764;2022-11-15T15:59:23;100599.44;;;32.96
65600;BMP280;52272;-29.642;-50.764;2022-11-15T16:01:54;100591.06;;;32.73
65600;BMP280;52272;-29.642;-50.764;2022-11-15T16:04:24;100586.88;;;32.72
65600;BMP280;52272;-29.642;-50.764;2022-11-15T16:07:03;100584.19;;;32.52
65600;BMP280;52272;-29.642;-50.764;2022-11-15T16:09:33;100602.31;;;33.10
65600;BMP280;52272;-29.642;-50.764;2022-11-15T16:12:22;100597.03;;;32.58
65600;BMP280;52272;-29.642;-50.764;2022-11-15T16:14:52;100592.84;;;33.01
65600;BMP280;52272;-29.642;-50.764;2022-11-15T16:17:25;100592.88;;;33.24
65600;BMP280;52272;-29.642;-50.764;2022-11-15T16:20:02;100579.88;;;33.15
65600;BMP280;52272;-29.642;-50.764;2022-11-15T16:22:33;100582.28;;;32.65
65600;BMP280;52272;-29.642;-50.764;2022-11-15T16:25:03;100580.78;;;32.21
65600;BMP280;52272;-29.642;-50.764;2022-11-15T16:27:34;100587.69;;;33.19
65600;BMP280;52272;-29.642;-50.764;2022-11-15T16:30:14;100584.31;;;33.20
65600;BMP280;52272;-29.642;-50.764;2022-11-15T16:32:45;100571.00;;;32.50
65600;BMP280;52272;-29.642;-50.764;2022-11-15T16:35:18;100580.16;;;32.75
65600;BMP280;52272;-29.642;-50.764;2022-11-15T16:37:48;100574.22;;;32.26
65600;BMP280;52272;-29.642;-50.764;2022-11-15T16:40:31;100582.47;;;31.84
65600;BMP280;52272;-29.642;-50.764;2022-11-15T16:43:02;100598.75;;;32.43
65600;BMP280;52272;-29.642;-50.764;2022-11-15T16:45:35;100578.22;;;32.66
65600;BMP280;52272;-29.642;-50.764;2022-11-15T16:48:05;100582.19;;;32.75
65600;BMP280;52272;-29.642;-50.764;2022-11-15T16:50:35;100563.06;;;33.00
65600;BMP280;52272;-29.642;-50.764;2022-11-15T16:53:09;100559.72;;;33.01
65600;BMP280;52272;-29.642;-50.764;2022-11-15T16:55:39;100558.75;;;32.53
65600;BMP280;52272;-29.642;-50.764;2022-11-15T16:58:09;100570.31;;;32.61
65600;BMP280;52272;-29.642;-50.764;2022-11-15T17:00:40;100571.38;;;32.67